createdAt,value
2019-05-05T00:01:45.106Z,97142.56
2019-05-05T00:04:36.216Z,97139.57
2019-05-05T00:07:05.042Z,97150.65
2019-05-05T00:09:34.707Z,97143.13
2019-05-05T00:12:21.618Z,97141.43
2019-05-05T00:15:06.660Z,97145.21
2019-05-05T00:17:35.563Z,97147.20
2019-05-05T00:20:05.305Z,97154.29
2019-05-05T00:22:35.039Z,97153.83
2019-05-05T00:25:05.076Z,97150.50
2019-05-05T00:27:34.706Z,97147.91
2019-05-05T00:30:06.573Z,97137.76
2019-05-05T00:32:35.371Z,97137.48
2019-05-05T00:35:14.875Z,97143.13
2019-05-05T00:37:45.079Z,97142.87
2019-05-05T00:40:14.298Z,97143.02
2019-05-05T00:42:43.093Z,97144.31
2019-05-05T00:45:12.022Z,97146.83
2019-05-05T00:47:54.272Z,97143.02
2019-05-05T00:50:25.265Z,97146.45
2019-05-05T00:52:55.078Z,97144.31
2019-05-05T00:55:24.456Z,97153.88
2019-05-05T00:57:54.835Z,97158.67
2019-05-05T01:00:47.051Z,97166.53
2019-05-05T01:03:28.086Z,97171.33
2019-05-05T01:06:25.665Z,97176.52
2019-05-05T01:08:55.085Z,97182.61
2019-05-05T01:11:25.092Z,97183.20
2019-05-05T01:13:56.237Z,97182.08
2019-05-05T01:16:25.470Z,97186.74
2019-05-05T01:18:55.373Z,97187.09
2019-05-05T01:21:24.595Z,97184.53
2019-05-05T01:23:54.837Z,97191.61
2019-05-05T01:26:24.901Z,97195.58
2019-05-05T01:28:56.173Z,97199.32
2019-05-05T01:31:25.282Z,97207.48
2019-05-05T01:34:14.952Z,97211.90
2019-05-05T01:36:45.148Z,97211.90
2019-05-05T01:39:39.424Z,97218.84
2019-05-05T01:42:14.316Z,97230.44
2019-05-05T01:44:44.782Z,97229.52
2019-05-05T01:47:14.798Z,97227.84
2019-05-05T01:49:45.270Z,97220.38
2019-05-05T01:52:15.009Z,97218.31
2019-05-05T01:54:44.732Z,97219.75
2019-05-05T01:57:14.792Z,97226.86
2019-05-05T01:59:44.879Z,97225.00
2019-05-05T02:02:14.636Z,97225.17
2019-05-05T02:04:44.884Z,97238.28
2019-05-05T02:07:14.457Z,97238.97
2019-05-05T02:09:44.847Z,97237.39
2019-05-05T02:12:15.841Z,97244.25
2019-05-05T02:14:44.609Z,97251.23
2019-05-05T02:17:14.455Z,97245.84
2019-05-05T02:19:44.322Z,97250.11
2019-05-05T02:22:14.713Z,97255.99
2019-05-05T02:24:44.574Z,97249.73
2019-05-05T02:27:14.591Z,97248.95
2019-05-05T02:30:06.160Z,97243.88
2019-05-05T02:32:40.089Z,97236.94
2019-05-05T02:35:11.645Z,97243.03
2019-05-05T02:37:40.566Z,97235.95
2019-05-05T02:40:10.467Z,97230.20
2019-05-05T02:42:39.806Z,97231.67
2019-05-05T02:45:11.209Z,97229.61
2019-05-05T02:47:57.689Z,97232.80
2019-05-05T02:50:46.555Z,97224.81
2019-05-05T02:53:04.011Z,97220.47
2019-05-05T02:55:34.806Z,97220.75
2019-05-05T02:58:03.979Z,97220.14
2019-05-05T03:01:00.651Z,97215.34
2019-05-05T03:03:31.817Z,97217.55
2019-05-05T03:06:00.877Z,97212.83
2019-05-05T03:08:30.855Z,97213.14
2019-05-05T03:11:01.081Z,97212.69
2019-05-05T03:13:31.080Z,97212.44
2019-05-05T03:16:14.192Z,97214.30
2019-05-05T03:18:45.919Z,97226.70
2019-05-05T03:21:15.032Z,97224.73
2019-05-05T03:23:44.153Z,97226.86
2019-05-05T03:26:14.057Z,97236.00
2019-05-05T03:28:47.236Z,97240.80
2019-05-05T03:31:17.313Z,97243.32
2019-05-05T03:33:46.726Z,97245.70
2019-05-05T03:36:15.887Z,97243.56
2019-05-05T03:38:44.902Z,97254.16
2019-05-05T03:41:21.310Z,97258.88
2019-05-05T03:44:27.309Z,97267.63
2019-05-05T03:46:56.373Z,97265.05
2019-05-05T03:49:25.427Z,97276.77
2019-05-05T03:51:54.491Z,97277.67
2019-05-05T03:54:23.939Z,97283.41
2019-05-05T03:57:07.942Z,97284.80
2019-05-05T03:59:37.852Z,97281.95
2019-05-05T04:02:14.267Z,97291.86
2019-05-05T04:04:46.594Z,97292.70
2019-05-05T04:07:15.484Z,97291.27
2019-05-05T04:09:45.027Z,97293.86
2019-05-05T04:12:14.484Z,97300.02
2019-05-05T04:14:45.407Z,97308.63
2019-05-05T04:17:48.692Z,97315.04
2019-05-05T04:20:29.039Z,97324.89
2019-05-05T04:22:58.340Z,97334.11
2019-05-05T04:25:27.342Z,97329.16
2019-05-05T04:27:56.315Z,97333.75
2019-05-05T04:30:25.124Z,97335.57
2019-05-05T04:32:54.707Z,97331.91
2019-05-05T04:35:24.603Z,97338.77
2019-05-05T04:37:54.284Z,97334.81
2019-05-05T04:40:24.083Z,97342.14
2019-05-05T04:42:54.704Z,97342.98
2019-05-05T04:45:25.694Z,97343.76
2019-05-05T04:47:58.979Z,97340.67
2019-05-05T04:51:02.287Z,97346.03
2019-05-05T04:53:43.836Z,97359.31
2019-05-05T04:56:14.140Z,97361.89
2019-05-05T04:58:44.018Z,97358.52
2019-05-05T05:01:13.679Z,97361.38
2019-05-05T05:03:59.086Z,97354.72
2019-05-05T05:06:34.197Z,97359.39
2019-05-05T05:09:04.061Z,97355.41
2019-05-05T05:11:33.657Z,97375.41
2019-05-05T05:14:03.893Z,97382.41
2019-05-05T05:16:32.818Z,97380.27
2019-05-05T05:19:01.923Z,97385.84
2019-05-05T05:21:30.853Z,97388.98
2019-05-05T05:23:59.814Z,97385.23
2019-05-05T05:26:29.081Z,97389.59
2019-05-05T05:28:57.990Z,97384.63
2019-05-05T05:31:26.845Z,97385.80
2019-05-05T05:33:56.125Z,97397.06
2019-05-05T05:36:25.082Z,97393.81
2019-05-05T05:38:56.200Z,97403.57
2019-05-05T05:41:47.409Z,97406.09
2019-05-05T05:44:26.378Z,97410.37
2019-05-05T05:47:17.061Z,97412.56
2019-05-05T05:49:58.050Z,97411.28
2019-05-05T05:52:26.933Z,97411.14
2019-05-05T05:54:55.760Z,97415.41
2019-05-05T05:57:24.638Z,97422.02
2019-05-05T05:59:54.870Z,97422.22
2019-05-05T06:02:24.248Z,97418.99
2019-05-05T06:04:53.965Z,97418.45
2019-05-05T06:07:24.497Z,97419.63
2019-05-05T06:09:54.171Z,97418.65
2019-05-05T06:12:24.560Z,97421.42
2019-05-05T06:14:54.557Z,97423.69
2019-05-05T06:17:23.822Z,97428.36
2019-05-05T06:19:53.462Z,97429.84
2019-05-05T06:22:29.396Z,97430.70
2019-05-05T06:24:54.085Z,97425.92
2019-05-05T06:27:23.625Z,97429.64
2019-05-05T06:29:54.262Z,97430.53
2019-05-05T06:32:26.484Z,97433.58
2019-05-05T06:34:55.500Z,97440.02
2019-05-05T06:37:24.761Z,97438.05
2019-05-05T06:39:56.267Z,97440.89
2019-05-05T06:42:43.545Z,97442.97
2019-05-05T06:45:23.970Z,97447.50
2019-05-05T06:47:53.704Z,97452.66
2019-05-05T06:50:24.281Z,97459.92
2019-05-05T06:52:54.299Z,97468.05
2019-05-05T06:55:25.274Z,97469.74
2019-05-05T06:57:54.478Z,97467.44
2019-05-05T07:00:28.585Z,97472.09
2019-05-05T07:05:34.118Z,97468.34
2019-05-05T07:08:04.470Z,97463.11
2019-05-05T07:10:33.992Z,97464.08
2019-05-05T07:13:05.023Z,97462.45
2019-05-05T07:15:34.387Z,97470.34
2019-05-05T07:18:03.782Z,97475.06
2019-05-05T07:20:34.694Z,97482.22
2019-05-05T07:25:42.754Z,97489.12
2019-05-05T07:28:10.195Z,97483.41
2019-05-05T07:30:39.737Z,97488.50
2019-05-05T07:33:11.195Z,97493.91
2019-05-05T07:35:55.999Z,97498.73
2019-05-05T07:38:16.467Z,97489.39
2019-05-05T07:43:28.654Z,97499.80
2019-05-05T07:45:57.699Z,97508.44
2019-05-05T07:48:26.811Z,97511.91
2019-05-05T07:51:01.482Z,97505.89
2019-05-05T07:53:26.983Z,97511.20
2019-05-05T07:55:54.996Z,97515.67
2019-05-05T07:58:28.924Z,97511.66
2019-05-05T08:00:58.226Z,97516.23
2019-05-05T08:03:27.907Z,97518.83
2019-05-05T08:05:57.210Z,97519.40
2019-05-05T08:08:26.376Z,97519.40
2019-05-05T08:10:55.622Z,97527.93
2019-05-05T08:13:24.841Z,97535.05
2019-05-05T08:15:59.803Z,97531.40
2019-05-05T08:18:46.891Z,97528.52
2019-05-05T08:21:16.610Z,97532.27
2019-05-05T08:24:05.979Z,97536.81
2019-05-05T08:26:50.141Z,97536.91
2019-05-05T08:29:34.588Z,97537.49
2019-05-05T08:32:16.160Z,97541.41
2019-05-05T08:34:56.856Z,97542.14
2019-05-05T08:37:16.579Z,97535.97
2019-05-05T08:39:47.038Z,97535.94
2019-05-05T08:42:17.273Z,97528.98
2019-05-05T08:44:46.848Z,97532.81
2019-05-05T08:47:16.121Z,97543.13
2019-05-05T08:49:45.416Z,97536.52
2019-05-05T08:54:56.160Z,97538.42
2019-05-05T08:57:26.809Z,97532.19
2019-05-05T08:59:55.890Z,97542.81
2019-05-05T09:02:24.881Z,97533.95
2019-05-05T09:04:54.162Z,97532.53
2019-05-05T09:07:26.523Z,97529.75
2019-05-05T09:09:55.930Z,97528.52
2019-05-05T09:12:25.032Z,97528.30
2019-05-05T09:14:54.063Z,97528.38
2019-05-05T09:17:24.366Z,97527.07
2019-05-05T09:19:53.855Z,97524.09
2019-05-05T09:22:26.116Z,97525.32
2019-05-05T09:25:04.392Z,97520.48
2019-05-05T09:30:11.165Z,97528.61
2019-05-05T09:32:40.614Z,97530.87
2019-05-05T09:35:10.151Z,97536.94
2019-05-05T09:37:39.579Z,97541.14
2019-05-05T09:40:09.030Z,97544.84
2019-05-05T09:42:41.918Z,97543.73
2019-05-05T09:45:14.026Z,97536.83
2019-05-05T09:47:46.307Z,97536.30
2019-05-05T09:50:18.885Z,97534.02
2019-05-05T09:52:51.090Z,97532.74
2019-05-05T09:55:26.288Z,97530.50
2019-05-05T09:57:56.185Z,97535.50
2019-05-05T10:00:31.241Z,97538.09
2019-05-05T10:03:00.609Z,97537.53
2019-05-05T10:05:30.033Z,97544.34
2019-05-05T10:08:06.560Z,97549.66
2019-05-05T10:10:38.797Z,97542.14
2019-05-05T10:13:08.466Z,97544.17
2019-05-05T10:15:46.493Z,97538.58
2019-05-05T10:18:33.744Z,97541.04
2019-05-05T10:21:08.833Z,97538.78
2019-05-05T10:23:40.879Z,97536.56
2019-05-05T10:26:14.966Z,97540.09
2019-05-05T10:28:45.249Z,97543.52
2019-05-05T10:31:14.236Z,97536.61
2019-05-05T10:33:48.855Z,97545.09
2019-05-05T10:36:18.794Z,97534.91
2019-05-05T10:38:51.331Z,97540.27
2019-05-05T10:41:20.090Z,97534.65
2019-05-05T10:43:49.152Z,97534.88
2019-05-05T10:46:18.151Z,97533.61
2019-05-05T10:48:46.978Z,97532.51
2019-05-05T10:51:15.869Z,97532.08
2019-05-05T10:53:44.660Z,97528.75
2019-05-05T10:56:14.487Z,97529.19
2019-05-05T10:58:44.166Z,97525.08
2019-05-05T11:01:14.527Z,97526.95
2019-05-05T11:03:44.683Z,97527.72
2019-05-05T11:06:14.880Z,97521.66
2019-05-05T11:08:45.177Z,97520.66
2019-05-05T11:11:14.149Z,97532.88
2019-05-05T11:13:45.567Z,97533.32
2019-05-05T11:16:14.509Z,97536.49
2019-05-05T11:18:43.352Z,97532.97
2019-05-05T11:21:14.322Z,97532.27
2019-05-05T11:23:44.746Z,97528.59
2019-05-05T11:26:14.316Z,97535.81
2019-05-05T11:28:44.538Z,97532.47
2019-05-05T11:31:13.801Z,97532.91
2019-05-05T11:33:54.182Z,97532.92
2019-05-05T11:36:30.255Z,97523.70
2019-05-05T11:38:59.254Z,97528.67
2019-05-05T11:41:29.964Z,97529.00
2019-05-05T11:44:04.117Z,97532.54
2019-05-05T11:46:34.918Z,97535.97
2019-05-05T11:49:24.293Z,97535.91
2019-05-05T11:51:54.201Z,97538.95
2019-05-05T11:54:28.550Z,97545.53
2019-05-05T11:56:58.601Z,97541.09
2019-05-05T11:59:27.656Z,97540.34
2019-05-05T12:01:56.951Z,97545.41
2019-05-05T12:04:26.003Z,97545.64
2019-05-05T12:06:58.118Z,97546.55
2019-05-05T12:09:39.884Z,97545.40
2019-05-05T12:12:08.990Z,97547.55
2019-05-05T12:14:38.480Z,97547.25
2019-05-05T12:17:08.387Z,97544.44
2019-05-05T12:19:37.491Z,97549.84
2019-05-05T12:22:08.887Z,97551.78
2019-05-05T12:24:44.320Z,97557.31
2019-05-05T12:27:30.649Z,97552.34
2019-05-05T12:30:09.411Z,97549.53
2019-05-05T12:32:40.523Z,97550.41
2019-05-05T12:35:09.265Z,97545.84
2019-05-05T12:37:44.543Z,97538.63
2019-05-05T12:40:14.289Z,97536.83
2019-05-05T12:42:43.988Z,97536.75
2019-05-05T12:45:16.567Z,97531.30
2019-05-05T12:50:24.507Z,97527.62
2019-05-05T12:52:54.887Z,97524.11
2019-05-05T12:55:38.341Z,97521.81
2019-05-05T12:57:57.512Z,97521.42
2019-05-05T13:00:29.903Z,97518.98
2019-05-05T13:02:58.802Z,97521.02
2019-05-05T13:05:27.661Z,97523.19
2019-05-05T13:07:56.460Z,97519.34
2019-05-05T13:10:26.648Z,97518.59
2019-05-05T13:12:55.566Z,97518.25
2019-05-05T13:15:25.917Z,97519.91
2019-05-05T13:17:55.213Z,97517.80
2019-05-05T13:20:36.874Z,97527.50
2019-05-05T13:23:25.246Z,97528.16
2019-05-05T13:26:04.400Z,97532.45
2019-05-05T13:28:34.430Z,97526.69
2019-05-05T13:31:04.716Z,97529.05
2019-05-05T13:33:37.066Z,97536.55
2019-05-05T13:36:04.755Z,97537.20
2019-05-05T13:38:34.395Z,97537.52
2019-05-05T13:41:03.814Z,97540.05
2019-05-05T13:43:34.224Z,97539.83
2019-05-05T13:46:17.815Z,97533.28
2019-05-05T13:48:46.769Z,97540.19
2019-05-05T13:51:16.171Z,97531.71
2019-05-05T13:53:45.198Z,97533.02
2019-05-05T13:56:15.336Z,97534.38
2019-05-05T13:58:44.527Z,97530.58
2019-05-05T14:01:14.480Z,97534.81
2019-05-05T14:03:44.701Z,97535.66
2019-05-05T14:06:14.000Z,97525.31
2019-05-05T14:08:44.782Z,97525.95
2019-05-05T14:11:17.022Z,97522.20
2019-05-05T14:13:48.528Z,97514.41
2019-05-05T14:16:16.617Z,97513.67
2019-05-05T14:18:45.495Z,97515.65
2019-05-05T14:21:15.411Z,97522.13
2019-05-05T14:24:03.821Z,97519.34
2019-05-05T14:26:35.181Z,97518.88
2019-05-05T14:29:04.277Z,97527.33
2019-05-05T14:31:36.665Z,97526.73
2019-05-05T14:34:13.972Z,97526.55
2019-05-05T14:37:11.059Z,97532.55
2019-05-05T14:39:39.828Z,97534.97
2019-05-05T14:42:09.279Z,97534.45
2019-05-05T14:44:38.325Z,97528.98
2019-05-05T14:47:07.216Z,97535.34
2019-05-05T14:49:36.079Z,97541.41
2019-05-05T14:52:06.069Z,97545.11
2019-05-05T14:54:34.982Z,97540.94
2019-05-05T14:57:04.534Z,97544.73
2019-05-05T14:59:34.078Z,97544.02
2019-05-05T15:02:04.226Z,97545.84
2019-05-05T15:04:37.073Z,97550.70
2019-05-05T15:07:15.320Z,97544.33
2019-05-05T15:09:54.631Z,97558.28
2019-05-05T15:12:28.485Z,97552.03
2019-05-05T15:14:57.333Z,97554.49
2019-05-05T15:17:26.552Z,97556.48
2019-05-05T15:19:55.330Z,97552.28
2019-05-05T15:22:24.245Z,97555.33
2019-05-05T15:24:53.706Z,97554.02
2019-05-05T15:27:24.221Z,97551.50
2019-05-05T15:29:54.300Z,97549.95
2019-05-05T15:32:24.315Z,97549.48
2019-05-05T15:34:54.523Z,97554.67
2019-05-05T15:37:23.893Z,97548.33
2019-05-05T15:39:53.564Z,97550.66
2019-05-05T15:42:22.511Z,97553.55
2019-05-05T15:44:51.494Z,97546.02
2019-05-05T15:47:20.395Z,97554.49
2019-05-05T15:49:49.321Z,97548.11
2019-05-05T15:52:20.162Z,97547.08
2019-05-05T15:54:48.768Z,97552.72
2019-05-05T15:57:19.062Z,97551.09
2019-05-05T15:59:47.981Z,97552.59
2019-05-05T16:02:16.944Z,97549.66
2019-05-05T16:04:45.973Z,97541.28
2019-05-05T16:07:14.971Z,97546.20
2019-05-05T16:09:46.724Z,97544.95
2019-05-05T16:12:14.912Z,97545.70
2019-05-05T16:14:55.053Z,97540.09
2019-05-05T16:17:39.578Z,97548.13
2019-05-05T16:20:13.915Z,97548.88
2019-05-05T16:23:10.956Z,97550.88
2019-05-05T16:25:41.789Z,97554.70
2019-05-05T16:28:10.937Z,97555.58
2019-05-05T16:30:40.263Z,97553.74
2019-05-05T16:33:09.111Z,97551.34
2019-05-05T16:35:38.095Z,97553.50
2019-05-05T16:38:07.470Z,97553.18
2019-05-05T16:40:36.549Z,97557.81
2019-05-05T16:43:05.815Z,97557.41
2019-05-05T16:45:34.889Z,97554.20
2019-05-05T16:48:04.036Z,97557.09
2019-05-05T16:50:34.067Z,97567.88
2019-05-05T16:53:05.154Z,97566.00
2019-05-05T16:55:41.820Z,97571.23
2019-05-05T16:58:13.767Z,97576.13
2019-05-05T17:00:44.161Z,97573.51
2019-05-05T17:03:13.561Z,97576.93
2019-05-05T17:05:46.371Z,97571.08
2019-05-05T17:08:15.390Z,97573.54
2019-05-05T17:10:44.344Z,97580.64
2019-05-05T17:13:38.568Z,97573.73
2019-05-05T17:16:22.613Z,97573.63
2019-05-05T17:18:57.291Z,97574.66
2019-05-05T17:21:45.210Z,97572.89
2019-05-05T17:24:18.048Z,97575.31
2019-05-05T17:26:46.405Z,97577.80
2019-05-05T17:29:15.676Z,97577.74
2019-05-05T17:31:44.664Z,97579.52
2019-05-05T17:34:13.883Z,97581.79
2019-05-05T17:36:42.774Z,97588.33
2019-05-05T17:39:11.810Z,97586.64
2019-05-05T17:42:03.241Z,97577.50
2019-05-05T17:44:48.136Z,97587.39
2019-05-05T17:47:21.020Z,97588.32
2019-05-05T17:50:15.892Z,97589.44
2019-05-05T17:53:09.381Z,97592.20
2019-05-05T17:55:41.189Z,97597.91
2019-05-05T17:58:10.362Z,97595.69
2019-05-05T18:00:47.146Z,97595.62
2019-05-05T18:03:17.450Z,97596.64
2019-05-05T18:06:29.236Z,97595.94
2019-05-05T18:09:10.426Z,97599.02
2019-05-05T18:11:57.061Z,97600.80
2019-05-05T18:14:26.540Z,97602.79
2019-05-05T18:16:55.558Z,97603.17
2019-05-05T18:19:24.774Z,97603.09
2019-05-05T18:21:54.761Z,97608.14
2019-05-05T18:24:24.397Z,97613.73
2019-05-05T18:26:55.355Z,97615.04
2019-05-05T18:29:24.520Z,97616.14
2019-05-05T18:31:53.727Z,97625.17
2019-05-05T18:34:23.615Z,97624.45
2019-05-05T18:36:54.469Z,97629.20
2019-05-05T18:39:24.739Z,97626.94
2019-05-05T18:42:08.049Z,97636.81
2019-05-05T18:44:41.046Z,97643.70
2019-05-05T18:47:17.988Z,97643.91
2019-05-05T18:49:46.551Z,97646.30
2019-05-05T18:52:15.539Z,97652.47
2019-05-05T18:54:45.511Z,97652.45
2019-05-05T18:57:14.627Z,97659.33
2019-05-05T18:59:44.686Z,97658.55
2019-05-05T19:02:46.107Z,97658.52
2019-05-05T19:05:44.048Z,97667.30
2019-05-05T19:08:51.779Z,97670.57
2019-05-05T19:11:12.172Z,97672.14
2019-05-05T19:13:41.592Z,97673.33
2019-05-05T19:16:10.535Z,97674.60
2019-05-05T19:18:39.549Z,97675.33
2019-05-05T19:21:25.799Z,97681.64
2019-05-05T19:23:54.986Z,97680.11
2019-05-05T19:26:25.392Z,97684.13
2019-05-05T19:28:54.792Z,97689.39
2019-05-05T19:31:24.892Z,97687.85
2019-05-05T19:33:55.918Z,97692.31
2019-05-05T19:36:27.378Z,97696.02
2019-05-05T19:38:56.596Z,97694.41
2019-05-05T19:41:31.958Z,97699.80
2019-05-05T19:44:04.509Z,97700.05
2019-05-05T19:46:38.970Z,97700.06
2019-05-05T19:49:16.984Z,97697.40
2019-05-05T19:51:54.159Z,97698.63
2019-05-05T19:54:34.046Z,97696.20
2019-05-05T19:57:05.123Z,97693.75
2019-05-05T19:59:36.252Z,97710.52
2019-05-05T20:02:05.683Z,97706.25
2019-05-05T20:04:35.667Z,97706.17
2019-05-05T20:07:06.753Z,97708.63
2019-05-05T20:09:47.202Z,97710.48
2019-05-05T20:12:22.050Z,97707.17
2019-05-05T20:14:51.287Z,97704.64
2019-05-05T20:17:29.765Z,97710.08
2019-05-05T20:20:06.326Z,97709.86
2019-05-05T20:22:40.615Z,97711.69
2019-05-05T20:25:09.920Z,97706.31
2019-05-05T20:27:40.773Z,97712.33
2019-05-05T20:30:11.307Z,97710.54
2019-05-05T20:32:56.087Z,97716.88
2019-05-05T20:35:29.288Z,97707.00
2019-05-05T20:38:04.704Z,97711.98
2019-05-05T20:40:36.342Z,97707.58
2019-05-05T20:43:06.553Z,97698.45
2019-05-05T20:45:37.266Z,97710.73
2019-05-05T20:48:06.518Z,97708.48
2019-05-05T20:50:44.105Z,97707.80
2019-05-05T20:53:13.645Z,97709.50
2019-05-05T20:55:44.704Z,97712.14
2019-05-05T20:58:19.483Z,97702.27
2019-05-05T21:00:55.007Z,97702.20
2019-05-05T21:03:25.105Z,97701.88
2019-05-05T21:05:55.091Z,97707.67
2019-05-05T21:08:24.064Z,97709.94
2019-05-05T21:10:53.774Z,97699.50
2019-05-05T21:13:22.654Z,97704.57
2019-05-05T21:15:53.758Z,97700.70
2019-05-05T21:18:24.357Z,97707.52
2019-05-05T21:21:01.590Z,97701.83
2019-05-05T21:23:39.025Z,97696.12
2019-05-05T21:26:17.842Z,97701.30
2019-05-05T21:28:53.803Z,97706.70
2019-05-05T21:31:23.972Z,97700.98
2019-05-05T21:33:58.962Z,97699.50
2019-05-05T21:36:28.146Z,97700.95
2019-05-05T21:38:58.179Z,97703.15
2019-05-05T21:41:27.074Z,97705.36
2019-05-05T21:43:56.072Z,97707.81
2019-05-05T21:46:27.037Z,97704.58
2019-05-05T21:48:57.023Z,97714.27
2019-05-05T21:51:43.637Z,97713.51
2019-05-05T21:54:30.678Z,97705.53
2019-05-05T21:57:24.320Z,97707.67
2019-05-05T21:59:58.045Z,97703.45
2019-05-05T22:02:23.982Z,97700.33
2019-05-05T22:04:54.340Z,97694.83
2019-05-05T22:07:24.105Z,97699.67
2019-05-05T22:09:54.452Z,97699.22
2019-05-05T22:12:24.351Z,97699.47
2019-05-05T22:14:55.104Z,97701.37
2019-05-05T22:17:24.080Z,97704.89
2019-05-05T22:20:04.067Z,97702.98
2019-05-05T22:22:36.467Z,97700.70
2019-05-05T22:25:05.440Z,97696.42
2019-05-05T22:27:34.672Z,97698.16
2019-05-05T22:30:10.171Z,97694.41
2019-05-05T22:32:34.449Z,97689.98
2019-05-05T22:35:03.421Z,97694.36
2019-05-05T22:37:34.350Z,97696.69
2019-05-05T22:40:03.074Z,97702.49
2019-05-05T22:42:34.112Z,97703.84
2019-05-05T22:45:04.459Z,97701.94
2019-05-05T22:47:34.542Z,97701.72
2019-05-05T22:50:04.462Z,97697.57
2019-05-05T22:52:34.516Z,97703.24
2019-05-05T22:55:04.583Z,97698.52
2019-05-05T22:57:34.507Z,97701.10
2019-05-05T23:00:03.847Z,97697.80
2019-05-05T23:02:35.177Z,97697.80
2019-05-05T23:05:14.721Z,97703.92
2019-05-05T23:07:43.881Z,97695.94
2019-05-05T23:10:14.060Z,97695.94
2019-05-05T23:12:43.988Z,97699.82
2019-05-05T23:15:14.494Z,97692.24
2019-05-05T23:18:05.088Z,97700.31
2019-05-05T23:21:30.195Z,97695.95
2019-05-05T23:24:18.234Z,97699.55
2019-05-05T23:26:48.155Z,97697.86
2019-05-05T23:29:17.052Z,97699.52
2019-05-05T23:31:45.808Z,97704.64
2019-05-05T23:34:14.871Z,97706.69
2019-05-05T23:36:44.402Z,97708.20
2019-05-05T23:39:13.634Z,97708.20
2019-05-05T23:41:42.550Z,97710.39
2019-05-05T23:44:11.755Z,97707.80
2019-05-05T23:46:40.934Z,97696.93
2019-05-05T23:49:09.794Z,97701.25
2019-05-05T23:51:38.628Z,97705.80
2019-05-05T23:54:07.666Z,97694.39
2019-05-05T23:56:36.586Z,97700.48
2019-05-05T23:59:05.498Z,97700.48
